^^
Station Historical Data
 
Daily Summary for January 16, 2018 Units:  Metric    English   Both
« Previous Day
Next Day »
Daily Weekly Monthly Yearly Custom
  Current: High: Low: Average:
Temperature: 4.7 °C 7.0 °C 3.9 °C 5.6 °C
Dew Point: 2.4 °C 5.5 °C 2.2 °C 3.4 °C
Humidity: 85% 92% 76% 86%
Wind Speed: 11.3km/h 19.3km/h 4.8km/h 11.4km/h
Wind Gust: 20.9km/h 51.5km/h - -
WindWSW - - West
Pressure: 995.8 hPa 999.5 hPa 994.8 hPa -
Precipitation: 4.8 mm      
Historical Graphs
 
 
Tabular Data for January 16, 2018
Time Temperature Dew Point Pressure Wind Wind Speed Wind Gust Humidity Rainfall Rate (Hourly)
00:05 6.6 °C 4.9 °C 995.8 hPa SW 6.4 km/h 12.9 km/h 89% 0.0 mm
00:10 6.6 °C 4.9 °C 995.8 hPa SW 8.0 km/h 20.9 km/h 89% 0.3 mm
00:15 6.7 °C 5.0 °C 995.8 hPa WSW 9.7 km/h 20.9 km/h 89% 0.3 mm
00:20 6.9 °C 5.2 °C 995.8 hPa WSW 11.3 km/h 24.1 km/h 89% 0.3 mm
00:25 7.0 °C 5.1 °C 995.8 hPa West 11.3 km/h 25.7 km/h 88% 0.5 mm
00:30 6.9 °C 5.1 °C 995.8 hPa West 11.3 km/h 30.6 km/h 88% 0.5 mm
00:35 6.8 °C 5.1 °C 995.8 hPa West 12.9 km/h 30.6 km/h 89% 0.5 mm
00:40 6.8 °C 5.1 °C 995.5 hPa West 14.5 km/h 30.6 km/h 89% 0.5 mm
00:55 6.7 °C 5.2 °C 995.5 hPa WSW 8.0 km/h 16.1 km/h 90% 0.5 mm
01:00 6.7 °C 5.4 °C 995.1 hPa SW 8.0 km/h 14.5 km/h 91% 0.5 mm
01:05 6.7 °C 5.3 °C 995.1 hPa SW 8.0 km/h 14.5 km/h 91% 0.5 mm
01:10 6.6 °C 5.2 °C 995.1 hPa SW 6.4 km/h 14.5 km/h 91% 0.5 mm
01:15 6.6 °C 5.2 °C 995.1 hPa SW 6.4 km/h 16.1 km/h 91% 0.5 mm
01:20 6.6 °C 5.3 °C 995.1 hPa SW 6.4 km/h 16.1 km/h 92% 0.5 mm
01:25 6.6 °C 5.4 °C 995.1 hPa SW 8.0 km/h 16.1 km/h 92% 0.3 mm
01:30 6.7 °C 5.5 °C 995.1 hPa SW 8.0 km/h 16.1 km/h 92% 0.0 mm
01:35 6.7 °C 5.5 °C 995.1 hPa WSW 6.4 km/h 16.1 km/h 92% 0.0 mm
01:40 6.7 °C 5.3 °C 995.1 hPa WSW 6.4 km/h 16.1 km/h 91% 0.0 mm
01:45 6.7 °C 5.3 °C 995.1 hPa SW 8.0 km/h 16.1 km/h 91% 0.0 mm
02:00 6.8 °C 5.4 °C 994.8 hPa SW 8.0 km/h 20.9 km/h 91% 0.0 mm
02:05 6.8 °C 5.4 °C 994.8 hPa SW 8.0 km/h 14.5 km/h 91% 0.0 mm
02:10 6.8 °C 5.5 °C 994.8 hPa SW 8.0 km/h 20.9 km/h 91% 0.3 mm
02:20 6.9 °C 5.4 °C 995.1 hPa WSW 8.0 km/h 14.5 km/h 90% 0.3 mm
02:25 6.9 °C 5.4 °C 994.8 hPa WSW 6.4 km/h 14.5 km/h 90% 0.3 mm
02:30 6.9 °C 5.4 °C 994.8 hPa SW 6.4 km/h 17.7 km/h 90% 0.3 mm
02:35 6.9 °C 5.4 °C 995.1 hPa WSW 8.0 km/h 17.7 km/h 90% 0.5 mm
02:40 6.9 °C 5.5 °C 995.1 hPa West 9.7 km/h 17.7 km/h 91% 0.5 mm
02:45 6.8 °C 5.5 °C 995.1 hPa West 9.7 km/h 17.7 km/h 91% 0.8 mm
02:55 6.7 °C 5.4 °C 995.5 hPa West 9.7 km/h 17.7 km/h 91% 0.8 mm
03:00 6.7 °C 5.5 °C 995.8 hPa WNW 9.7 km/h 20.9 km/h 92% 1.3 mm
03:10 6.0 °C 4.5 °C 995.1 hPa West 17.7 km/h 43.4 km/h 90% 1.5 mm
03:15 5.7 °C 4.0 °C 995.5 hPa West 19.3 km/h 43.4 km/h 89% 1.5 mm
03:20 5.7 °C 4.0 °C 995.5 hPa West 17.7 km/h 30.6 km/h 89% 1.5 mm
03:25 5.7 °C 4.0 °C 995.5 hPa West 16.1 km/h 30.6 km/h 89% 1.5 mm
03:30 5.7 °C 4.0 °C 995.5 hPa West 16.1 km/h 27.4 km/h 89% 1.3 mm
03:35 5.7 °C 4.2 °C 995.5 hPa West 14.5 km/h 25.7 km/h 90% 1.3 mm
03:40 5.7 °C 4.2 °C 995.5 hPa West 12.9 km/h 27.4 km/h 90% 1.0 mm
03:45 5.7 °C 4.2 °C 995.5 hPa West 12.9 km/h 27.4 km/h 90% 0.8 mm
03:50 5.8 °C 4.3 °C 995.5 hPa West 12.9 km/h 22.5 km/h 90% 0.8 mm
03:55 5.7 °C 4.2 °C 995.1 hPa West 12.9 km/h 22.5 km/h 90% 0.8 mm
04:00 5.7 °C 4.2 °C 995.5 hPa West 12.9 km/h 24.1 km/h 90% 0.5 mm
04:05 5.7 °C 4.2 °C 995.5 hPa West 11.3 km/h 25.7 km/h 90% 0.0 mm
04:10 5.6 °C 4.1 °C 995.5 hPa West 12.9 km/h 27.4 km/h 90% 0.0 mm
04:15 5.6 °C 3.9 °C 995.5 hPa West 12.9 km/h 27.4 km/h 89% 0.0 mm
04:20 5.6 °C 3.9 °C 995.5 hPa West 12.9 km/h 24.1 km/h 89% 0.0 mm
04:25 5.6 °C 3.9 °C 995.8 hPa West 12.9 km/h 20.9 km/h 89% 0.0 mm
04:30 5.7 °C 4.0 °C 995.8 hPa West 12.9 km/h 22.5 km/h 89% 0.0 mm
04:35 5.6 °C 3.9 °C 995.8 hPa West 9.7 km/h 22.5 km/h 89% 0.0 mm
04:40 5.6 °C 3.9 °C 995.8 hPa West 9.7 km/h 25.7 km/h 89% 0.0 mm
04:45 5.6 °C 3.8 °C 995.8 hPa West 9.7 km/h 25.7 km/h 88% 0.0 mm
04:50 5.6 °C 3.7 °C 995.8 hPa West 9.7 km/h 17.7 km/h 88% 0.0 mm
04:55 5.6 °C 3.8 °C 995.8 hPa West 9.7 km/h 22.5 km/h 88% 0.0 mm
05:00 5.7 °C 3.7 °C 995.8 hPa West 12.9 km/h 24.1 km/h 87% 0.0 mm
05:05 5.7 °C 3.6 °C 995.8 hPa West 11.3 km/h 24.1 km/h 86% 0.0 mm
05:10 5.8 °C 3.6 °C 996.2 hPa West 9.7 km/h 25.7 km/h 86% 0.0 mm
05:20 5.8 °C 3.5 °C 995.8 hPa West 9.7 km/h 25.7 km/h 85% 0.0 mm
05:25 5.9 °C 3.4 °C 996.2 hPa West 11.3 km/h 20.9 km/h 84% 0.0 mm
05:30 6.0 °C 3.5 °C 996.2 hPa West 11.3 km/h 20.9 km/h 84% 0.0 mm
05:35 5.9 °C 3.3 °C 996.2 hPa West 9.7 km/h 20.9 km/h 83% 0.0 mm
05:40 6.0 °C 3.3 °C 996.2 hPa West 9.7 km/h 20.9 km/h 83% 0.0 mm
05:45 6.1 °C 3.0 °C 996.2 hPa West 12.9 km/h 25.7 km/h 81% 0.0 mm
05:50 6.2 °C 3.1 °C 996.2 hPa West 11.3 km/h 25.7 km/h 81% 0.0 mm
05:55 6.1 °C 3.1 °C 996.2 hPa West 9.7 km/h 24.1 km/h 81% 0.0 mm
06:05 6.2 °C 3.1 °C 996.5 hPa West 9.7 km/h 20.9 km/h 81% 0.0 mm
06:15 6.1 °C 3.2 °C 996.5 hPa WSW 6.4 km/h 11.3 km/h 82% 0.0 mm
06:20 6.0 °C 3.3 °C 996.5 hPa SW 4.8 km/h 9.7 km/h 83% 0.0 mm
06:25 5.9 °C 3.4 °C 996.5 hPa WSW 6.4 km/h 20.9 km/h 84% 0.0 mm
06:30 6.0 °C 3.5 °C 996.8 hPa West 11.3 km/h 27.4 km/h 84% 0.0 mm
06:35 5.9 °C 3.4 °C 996.8 hPa West 11.3 km/h 27.4 km/h 84% 0.0 mm
06:40 5.9 °C 3.4 °C 996.8 hPa West 11.3 km/h 25.7 km/h 84% 0.3 mm
06:45 5.9 °C 3.4 °C 996.8 hPa West 12.9 km/h 38.6 km/h 84% 0.3 mm
06:50 5.8 °C 3.3 °C 997.2 hPa West 16.1 km/h 38.6 km/h 84% 0.3 mm
06:55 5.5 °C 3.2 °C 997.5 hPa WNW 16.1 km/h 37.0 km/h 85% 0.5 mm
07:00 5.3 °C 3.1 °C 997.9 hPa West 19.3 km/h 40.2 km/h 86% 0.5 mm
07:05 5.0 °C 3.0 °C 997.9 hPa West 17.7 km/h 40.2 km/h 87% 0.5 mm
07:10 4.7 °C 2.9 °C 997.9 hPa West 14.5 km/h 30.6 km/h 88% 0.5 mm
07:20 4.4 °C 2.7 °C 997.9 hPa West 16.1 km/h 29.0 km/h 89% 0.8 mm
07:35 4.2 °C 2.6 °C 997.9 hPa West 9.7 km/h 22.5 km/h 89% 0.8 mm
07:40 4.2 °C 2.5 °C 997.5 hPa West 9.7 km/h 22.5 km/h 89% 0.5 mm
07:45 4.1 °C 2.5 °C 997.5 hPa West 9.7 km/h 20.9 km/h 89% 0.5 mm
07:50 4.1 °C 2.5 °C 997.9 hPa West 11.3 km/h 20.9 km/h 89% 0.5 mm
07:55 4.1 °C 2.5 °C 997.9 hPa West 9.7 km/h 17.7 km/h 89% 0.5 mm
08:00 4.1 °C 2.4 °C 997.9 hPa West 6.4 km/h 14.5 km/h 89% 0.5 mm
08:05 3.9 °C 2.5 °C 997.9 hPa West 6.4 km/h 14.5 km/h 90% 0.3 mm
08:10 4.0 °C 2.5 °C 997.9 hPa West 6.4 km/h 14.5 km/h 90% 0.3 mm
08:15 4.0 °C 2.5 °C 997.9 hPa West 6.4 km/h 12.9 km/h 90% 0.0 mm
08:20 3.9 °C 2.5 °C 997.9 hPa West 6.4 km/h 14.5 km/h 90% 0.0 mm
08:25 3.9 °C 2.5 °C 998.2 hPa WSW 8.0 km/h 16.1 km/h 90% 0.0 mm
08:30 4.0 °C 2.5 °C 998.2 hPa West 8.0 km/h 17.7 km/h 90% 0.0 mm
08:35 4.2 °C 2.7 °C 998.2 hPa WSW 11.3 km/h 22.5 km/h 90% 0.0 mm
08:40 4.3 °C 2.7 °C 997.9 hPa West 11.3 km/h 22.5 km/h 89% 0.0 mm
08:45 4.4 °C 2.7 °C 997.9 hPa WSW 9.7 km/h 22.5 km/h 89% 0.0 mm
08:50 4.4 °C 2.8 °C 997.9 hPa WSW 8.0 km/h 14.5 km/h 89% 0.0 mm
08:55 4.5 °C 2.7 °C 997.9 hPa WSW 8.0 km/h 16.1 km/h 88% 0.0 mm
09:00 4.6 °C 2.7 °C 998.2 hPa WSW 8.0 km/h 16.1 km/h 88% 0.0 mm
09:05 4.7 °C 2.8 °C 998.2 hPa WSW 8.0 km/h 14.5 km/h 88% 0.0 mm
09:15 4.8 °C 3.0 °C 998.2 hPa West 9.7 km/h 22.5 km/h 88% 0.0 mm
09:25 5.1 °C 3.1 °C 998.2 hPa WSW 9.7 km/h 17.7 km/h 87% 0.0 mm
09:30 5.1 °C 3.1 °C 998.2 hPa WSW 9.7 km/h 17.7 km/h 87% 0.0 mm
09:35 5.2 °C 3.2 °C 998.2 hPa WSW 8.0 km/h 17.7 km/h 87% 0.0 mm
09:40 5.3 °C 3.3 °C 998.2 hPa WSW 8.0 km/h 17.7 km/h 87% 0.0 mm
09:45 5.4 °C 3.5 °C 998.2 hPa WSW 8.0 km/h 16.1 km/h 87% 0.0 mm
09:50 5.6 °C 3.5 °C 998.5 hPa WSW 6.4 km/h 16.1 km/h 86% 0.0 mm
09:55 5.7 °C 3.7 °C 999.2 hPa West 9.7 km/h 29.0 km/h 87% 0.0 mm
10:00 5.2 °C 3.1 °C 998.9 hPa WNW 16.1 km/h 51.5 km/h 86% 0.5 mm
10:05 4.7 °C 2.9 °C 998.9 hPa WNW 17.7 km/h 51.5 km/h 88% 1.0 mm
10:10 4.4 °C 2.9 °C 999.2 hPa WNW 14.5 km/h 30.6 km/h 90% 1.5 mm
10:15 4.2 °C 2.7 °C 999.2 hPa WNW 12.9 km/h 35.4 km/h 90% 1.5 mm
10:20 4.0 °C 2.7 °C 999.5 hPa West 14.5 km/h 35.4 km/h 91% 1.5 mm
10:25 3.9 °C 2.6 °C 999.2 hPa West 12.9 km/h 30.6 km/h 91% 1.8 mm
10:30 3.9 °C 2.6 °C 999.2 hPa West 12.9 km/h 25.7 km/h 91% 1.8 mm
10:50 4.2 °C 2.8 °C 998.9 hPa West 12.9 km/h 24.1 km/h 91% 1.8 mm
10:55 4.3 °C 2.8 °C 999.2 hPa West 12.9 km/h 24.1 km/h 90% 1.8 mm
11:10 4.8 °C 3.1 °C 999.2 hPa West 11.3 km/h 27.4 km/h 89% 0.5 mm
11:15 5.1 °C 3.4 °C 999.2 hPa West 11.3 km/h 27.4 km/h 89% 0.3 mm
11:30 5.1 °C 2.9 °C 999.2 hPa West 19.3 km/h 41.8 km/h 86% 0.0 mm
11:35 5.0 °C 2.9 °C 999.2 hPa West 16.1 km/h 27.4 km/h 86% 0.0 mm
11:40 4.9 °C 2.7 °C 999.2 hPa West 14.5 km/h 29.0 km/h 86% 0.0 mm
11:45 4.8 °C 2.7 °C 999.2 hPa West 14.5 km/h 29.0 km/h 86% 0.0 mm
11:50 4.8 °C 2.5 °C 998.9 hPa West 14.5 km/h 27.4 km/h 85% 0.0 mm
11:55 4.9 °C 2.6 °C 998.9 hPa West 12.9 km/h 27.4 km/h 85% 0.0 mm
12:00 5.0 °C 2.4 °C 998.9 hPa West 12.9 km/h 25.7 km/h 83% 0.0 mm
12:05 5.1 °C 2.5 °C 998.9 hPa West 14.5 km/h 25.7 km/h 83% 0.0 mm
12:10 5.2 °C 2.6 °C 998.9 hPa West 12.9 km/h 25.7 km/h 83% 0.0 mm
12:15 5.3 °C 2.6 °C 998.9 hPa West 14.5 km/h 29.0 km/h 83% 0.0 mm
12:25 5.5 °C 3.0 °C 998.5 hPa West 11.3 km/h 20.9 km/h 84% 0.0 mm
12:30 5.6 °C 2.9 °C 998.5 hPa West 12.9 km/h 30.6 km/h 83% 0.0 mm
12:35 5.7 °C 3.0 °C 998.5 hPa West 12.9 km/h 30.6 km/h 83% 0.0 mm
12:40 5.8 °C 3.0 °C 998.5 hPa West 14.5 km/h 27.4 km/h 82% 0.0 mm
12:45 5.9 °C 3.1 °C 998.5 hPa West 12.9 km/h 25.7 km/h 82% 0.0 mm
12:50 6.1 °C 3.3 °C 998.2 hPa West 9.7 km/h 25.7 km/h 82% 0.0 mm
12:55 6.2 °C 3.2 °C 998.2 hPa West 11.3 km/h 24.1 km/h 81% 0.0 mm
13:10 6.6 °C 3.2 °C 997.9 hPa West 12.9 km/h 27.4 km/h 79% 0.0 mm
13:15 6.8 °C 3.4 °C 998.2 hPa WSW 11.3 km/h 24.1 km/h 79% 0.0 mm
13:20 6.8 °C 3.2 °C 998.2 hPa WSW 11.3 km/h 24.1 km/h 78% 0.0 mm
13:25 6.7 °C 3.2 °C 997.9 hPa West 12.9 km/h 27.4 km/h 78% 0.0 mm
13:30 6.7 °C 3.3 °C 997.9 hPa West 12.9 km/h 27.4 km/h 79% 0.0 mm
13:35 6.6 °C 3.0 °C 997.9 hPa West 11.3 km/h 20.9 km/h 78% 0.0 mm
13:40 6.6 °C 3.2 °C 997.9 hPa West 11.3 km/h 20.9 km/h 79% 0.0 mm
13:55 6.3 °C 2.9 °C 997.5 hPa West 16.1 km/h 37.0 km/h 79% 0.0 mm
14:00 6.2 °C 3.0 °C 997.5 hPa West 16.1 km/h 35.4 km/h 80% 0.0 mm
14:05 6.2 °C 3.1 °C 997.9 hPa West 12.9 km/h 35.4 km/h 81% 0.0 mm
14:10 6.2 °C 3.3 °C 997.9 hPa West 6.4 km/h 17.7 km/h 82% 0.0 mm
14:15 6.2 °C 3.2 °C 997.5 hPa West 6.4 km/h 22.5 km/h 81% 0.0 mm
14:20 6.3 °C 3.1 °C 997.2 hPa West 8.0 km/h 22.5 km/h 80% 0.0 mm
14:25 6.2 °C 2.2 °C 997.5 hPa West 11.3 km/h 35.4 km/h 76% 0.0 mm
14:30 6.0 °C 2.3 °C 997.5 hPa West 16.1 km/h 35.4 km/h 77% 0.0 mm
14:35 5.9 °C 2.3 °C 997.5 hPa West 16.1 km/h 33.8 km/h 78% 0.0 mm
14:40 5.8 °C 2.4 °C 997.9 hPa West 16.1 km/h 33.8 km/h 79% 0.0 mm
14:45 5.7 °C 2.5 °C 997.5 hPa West 14.5 km/h 33.8 km/h 80% 0.0 mm
14:50 5.7 °C 2.5 °C 997.5 hPa West 12.9 km/h 29.0 km/h 80% 0.0 mm
14:55 5.7 °C 2.5 °C 997.5 hPa WSW 14.5 km/h 29.0 km/h 80% 0.0 mm
15:00 5.7 °C 2.7 °C 997.2 hPa WSW 11.3 km/h 27.4 km/h 81% 0.0 mm
15:05 5.7 °C 2.7 °C 997.2 hPa WSW 9.7 km/h 20.9 km/h 81% 0.0 mm
15:10 5.6 °C 2.8 °C 996.8 hPa WSW 9.7 km/h 20.9 km/h 82% 0.0 mm
15:20 5.4 °C 2.6 °C 996.8 hPa WSW 12.9 km/h 27.4 km/h 82% 0.0 mm
15:25 5.4 °C 2.8 °C 996.8 hPa WSW 12.9 km/h 27.4 km/h 83% 0.0 mm
15:35 5.4 °C 2.7 °C 996.5 hPa WSW 11.3 km/h 20.9 km/h 83% 0.0 mm
15:40 5.4 °C 2.7 °C 996.5 hPa WSW 9.7 km/h 20.9 km/h 83% 0.0 mm
15:45 5.3 °C 2.8 °C 996.5 hPa SW 11.3 km/h 29.0 km/h 84% 0.0 mm
15:50 5.3 °C 2.8 °C 996.5 hPa SW 11.3 km/h 29.0 km/h 84% 0.0 mm
15:55 5.3 °C 2.8 °C 996.5 hPa SW 9.7 km/h 24.1 km/h 84% 0.0 mm
16:00 5.3 °C 2.8 °C 996.5 hPa SW 11.3 km/h 22.5 km/h 84% 0.0 mm
16:05 5.3 °C 2.8 °C 996.5 hPa SW 11.3 km/h 22.5 km/h 84% 0.0 mm
16:15 5.3 °C 2.7 °C 996.5 hPa WSW 14.5 km/h 30.6 km/h 83% 0.0 mm
16:25 5.2 °C 2.6 °C 996.5 hPa WSW 14.5 km/h 30.6 km/h 83% 0.0 mm
16:30 5.1 °C 2.5 °C 996.2 hPa WSW 16.1 km/h 33.8 km/h 83% 0.0 mm
16:35 5.1 °C 2.4 °C 996.5 hPa WSW 16.1 km/h 33.8 km/h 83% 0.0 mm
16:40 5.0 °C 2.5 °C 996.5 hPa WSW 16.1 km/h 33.8 km/h 84% 0.0 mm
16:45 4.9 °C 2.5 °C 996.5 hPa WSW 17.7 km/h 33.8 km/h 84% 0.0 mm
16:50 4.9 °C 2.6 °C 996.5 hPa WSW 14.5 km/h 29.0 km/h 85% 0.0 mm
17:00 4.8 °C 2.6 °C 996.2 hPa WSW 9.7 km/h 24.1 km/h 86% 0.0 mm
17:05 4.8 °C 2.6 °C 996.2 hPa WSW 9.7 km/h 24.1 km/h 86% 0.0 mm
17:10 4.8 °C 2.5 °C 996.2 hPa WSW 9.7 km/h 24.1 km/h 85% 0.0 mm
17:15 4.7 °C 2.4 °C 995.8 hPa WSW 11.3 km/h 20.9 km/h 85% 0.0 mm
Fordingbridge UK
Compliments of Weather Underground - 2 mb